sensor_id;sensor_type;location;lat;lon;timestamp;temperature;humidity
10459;DHT22;5277;48.722;8.736;2023-11-19T00:01:28;8.90;99.90
10459;DHT22;5277;48.722;8.736;2023-11-19T00:03:54;8.90;99.90
10459;DHT22;5277;48.722;8.736;2023-11-19T00:06:19;8.90;99.90
10459;DHT22;5277;48.722;8.736;2023-11-19T00:08:45;8.90;99.90
10459;DHT22;5277;48.722;8.736;2023-11-19T00:11:10;8.90;99.90
10459;DHT22;5277;48.722;8.736;2023-11-19T00:13:36;8.90;99.90
10459;DHT22;5277;48.722;8.736;2023-11-19T00:16:02;8.90;99.90
10459;DHT22;5277;48.722;8.736;2023-11-19T00:18:29;8.90;99.90
10459;DHT22;5277;48.722;8.736;2023-11-19T00:20:55;9.00;99.90
10459;DHT22;5277;48.722;8.736;2023-11-19T00:23:20;9.00;99.90
10459;DHT22;5277;48.722;8.736;2023-11-19T00:25:46;9.00;99.90
10459;DHT22;5277;48.722;8.736;2023-11-19T00:28:13;9.10;99.90
10459;DHT22;5277;48.722;8.736;2023-11-19T00:30:38;9.10;99.90
10459;DHT22;5277;48.722;8.736;2023-11-19T00:33:06;9.10;99.90
10459;DHT22;5277;48.722;8.736;2023-11-19T00:35:31;9.10;99.90
10459;DHT22;5277;48.722;8.736;2023-11-19T00:37:58;9.10;99.90
10459;DHT22;5277;48.722;8.736;2023-11-19T00:40:23;9.10;99.90
10459;DHT22;5277;48.722;8.736;2023-11-19T00:42:49;9.00;99.90
10459;DHT22;5277;48.722;8.736;2023-11-19T00:45:15;9.10;99.90
10459;DHT22;5277;48.722;8.736;2023-11-19T00:47:41;9.10;99.90
10459;DHT22;5277;48.722;8.736;2023-11-19T00:50:07;9.10;99.90
10459;DHT22;5277;48.722;8.736;2023-11-19T00:52:35;9.10;99.90
10459;DHT22;5277;48.722;8.736;2023-11-19T00:55:01;9.10;99.90
10459;DHT22;5277;48.722;8.736;2023-11-19T00:57:26;9.20;99.90
10459;DHT22;5277;48.722;8.736;2023-11-19T00:59:52;9.20;99.90
10459;DHT22;5277;48.722;8.736;2023-11-19T01:02:18;9.20;99.90
10459;DHT22;5277;48.722;8.736;2023-11-19T01:04:43;9.20;99.90
10459;DHT22;5277;48.722;8.736;2023-11-19T01:07:09;9.30;99.90
10459;DHT22;5277;48.722;8.736;2023-11-19T01:09:38;9.30;99.90
10459;DHT22;5277;48.722;8.736;2023-11-19T01:12:04;9.30;99.90
10459;DHT22;5277;48.722;8.736;2023-11-19T01:14:30;9.40;99.90
10459;DHT22;5277;48.722;8.736;2023-11-19T01:16:56;9.40;99.90
10459;DHT22;5277;48.722;8.736;2023-11-19T01:19:22;9.40;99.90
10459;DHT22;5277;48.722;8.736;2023-11-19T01:21:48;9.40;99.90
10459;DHT22;5277;48.722;8.736;2023-11-19T01:24:14;9.40;99.90
10459;DHT22;5277;48.722;8.736;2023-11-19T01:26:40;9.40;99.90
10459;DHT22;5277;48.722;8.736;2023-11-19T01:29:11;9.40;99.90
10459;DHT22;5277;48.722;8.736;2023-11-19T01:31:39;9.40;99.90
10459;DHT22;5277;48.722;8.736;2023-11-19T01:34:05;9.40;99.90
10459;DHT22;5277;48.722;8.736;2023-11-19T01:36:31;9.50;99.90
10459;DHT22;5277;48.722;8.736;2023-11-19T01:38:56;9.50;99.90
10459;DHT22;5277;48.722;8.736;2023-11-19T01:41:22;9.50;99.90
10459;DHT22;5277;48.722;8.736;2023-11-19T01:43:47;9.60;99.90
10459;DHT22;5277;48.722;8.736;2023-11-19T01:46:13;9.60;99.90
10459;DHT22;5277;48.722;8.736;2023-11-19T01:48:43;9.60;99.90
10459;DHT22;5277;48.722;8.736;2023-11-19T01:51:09;9.60;99.90
10459;DHT22;5277;48.722;8.736;2023-11-19T01:53:37;9.60;99.90
10459;DHT22;5277;48.722;8.736;2023-11-19T01:56:05;9.70;99.90
10459;DHT22;5277;48.722;8.736;2023-11-19T01:58:35;9.70;99.90
10459;DHT22;5277;48.722;8.736;2023-11-19T02:01:00;9.70;99.90
10459;DHT22;5277;48.722;8.736;2023-11-19T02:03:31;9.70;99.90
10459;DHT22;5277;48.722;8.736;2023-11-19T02:05:56;9.70;99.90
10459;DHT22;5277;48.722;8.736;2023-11-19T02:08:23;9.70;99.90
10459;DHT22;5277;48.722;8.736;2023-11-19T02:10:48;9.80;99.90
10459;DHT22;5277;48.722;8.736;2023-11-19T02:13:14;9.80;99.90
10459;DHT22;5277;48.722;8.736;2023-11-19T02:15:41;9.90;99.90
10459;DHT22;5277;48.722;8.736;2023-11-19T02:18:20;9.90;99.90
10459;DHT22;5277;48.722;8.736;2023-11-19T02:20:47;9.90;99.90
10459;DHT22;5277;48.722;8.736;2023-11-19T02:23:13;9.90;99.90
10459;DHT22;5277;48.722;8.736;2023-11-19T02:25:40;10.00;99.90
10459;DHT22;5277;48.722;8.736;2023-11-19T02:28:06;9.90;99.90
10459;DHT22;5277;48.722;8.736;2023-11-19T02:30:32;9.90;99.90
10459;DHT22;5277;48.722;8.736;2023-11-19T02:32:59;9.90;99.90
10459;DHT22;5277;48.722;8.736;2023-11-19T02:35:27;9.90;99.90
10459;DHT22;5277;48.722;8.736;2023-11-19T02:37:57;9.90;99.90
10459;DHT22;5277;48.722;8.736;2023-11-19T02:40:23;10.00;99.90
10459;DHT22;5277;48.722;8.736;2023-11-19T02:42:52;10.00;99.90
10459;DHT22;5277;48.722;8.736;2023-11-19T02:45:19;10.00;99.90
10459;DHT22;5277;48.722;8.736;2023-11-19T02:47:45;10.00;99.90
10459;DHT22;5277;48.722;8.736;2023-11-19T02:50:11;10.00;99.90
10459;DHT22;5277;48.722;8.736;2023-11-19T02:52:49;10.00;99.90
10459;DHT22;5277;48.722;8.736;2023-11-19T02:55:16;10.00;99.90
10459;DHT22;5277;48.722;8.736;2023-11-19T02:57:43;10.10;99.90
10459;DHT22;5277;48.722;8.736;2023-11-19T03:02:41;10.10;99.90
10459;DHT22;5277;48.722;8.736;2023-11-19T03:05:14;10.10;99.90
10459;DHT22;5277;48.722;8.736;2023-11-19T03:07:44;10.10;99.90
10459;DHT22;5277;48.722;8.736;2023-11-19T03:10:10;10.10;99.90
10459;DHT22;5277;48.722;8.736;2023-11-19T03:12:39;10.10;99.90
10459;DHT22;5277;48.722;8.736;2023-11-19T03:15:05;10.10;99.90
10459;DHT22;5277;48.722;8.736;2023-11-19T03:17:31;10.20;99.90
10459;DHT22;5277;48.722;8.736;2023-11-19T03:19:57;10.20;99.90
10459;DHT22;5277;48.722;8.736;2023-11-19T03:22:22;10.20;99.90
10459;DHT22;5277;48.722;8.736;2023-11-19T03:24:50;10.20;99.90
10459;DHT22;5277;48.722;8.736;2023-11-19T03:27:16;10.20;99.90
10459;DHT22;5277;48.722;8.736;2023-11-19T03:29:42;10.20;99.90
10459;DHT22;5277;48.722;8.736;2023-11-19T03:32:07;10.20;99.90
10459;DHT22;5277;48.722;8.736;2023-11-19T03:34:33;10.30;99.90
10459;DHT22;5277;48.722;8.736;2023-11-19T03:36:58;10.20;99.90
10459;DHT22;5277;48.722;8.736;2023-11-19T03:39:24;10.20;99.90
10459;DHT22;5277;48.722;8.736;2023-11-19T03:41:50;10.20;99.90
10459;DHT22;5277;48.722;8.736;2023-11-19T03:44:16;10.20;99.90
10459;DHT22;5277;48.722;8.736;2023-11-19T03:46:42;10.30;99.90
10459;DHT22;5277;48.722;8.736;2023-11-19T03:49:07;10.30;99.90
10459;DHT22;5277;48.722;8.736;2023-11-19T03:51:33;10.30;99.90
10459;DHT22;5277;48.722;8.736;2023-11-19T03:54:00;10.40;99.90
10459;DHT22;5277;48.722;8.736;2023-11-19T03:56:26;10.40;99.90
10459;DHT22;5277;48.722;8.736;2023-11-19T03:58:52;10.30;99.90
10459;DHT22;5277;48.722;8.736;2023-11-19T04:01:18;10.30;99.90
10459;DHT22;5277;48.722;8.736;2023-11-19T04:03:43;10.30;99.90
10459;DHT22;5277;48.722;8.736;2023-11-19T04:06:09;10.40;99.90
10459;DHT22;5277;48.722;8.736;2023-11-19T04:08:35;10.30;99.90
10459;DHT22;5277;48.722;8.736;2023-11-19T04:11:03;10.30;99.90
10459;DHT22;5277;48.722;8.736;2023-11-19T04:13:28;10.30;99.90
10459;DHT22;5277;48.722;8.736;2023-11-19T04:15:54;10.40;99.90
10459;DHT22;5277;48.722;8.736;2023-11-19T04:18:19;10.40;99.90
10459;DHT22;5277;48.722;8.736;2023-11-19T04:20:45;10.40;99.90
10459;DHT22;5277;48.722;8.736;2023-11-19T04:23:10;10.40;99.90
10459;DHT22;5277;48.722;8.736;2023-11-19T04:25:37;10.50;99.90
10459;DHT22;5277;48.722;8.736;2023-11-19T04:28:02;10.60;99.90
10459;DHT22;5277;48.722;8.736;2023-11-19T04:30:28;10.60;99.90
10459;DHT22;5277;48.722;8.736;2023-11-19T04:32:54;10.60;99.90
10459;DHT22;5277;48.722;8.736;2023-11-19T04:35:19;10.60;99.90
10459;DHT22;5277;48.722;8.736;2023-11-19T04:37:45;10.70;99.90
10459;DHT22;5277;48.722;8.736;2023-11-19T04:40:11;10.70;99.90
10459;DHT22;5277;48.722;8.736;2023-11-19T04:42:37;10.70;99.90
10459;DHT22;5277;48.722;8.736;2023-11-19T04:45:06;10.70;99.90
10459;DHT22;5277;48.722;8.736;2023-11-19T04:47:32;10.70;99.90
10459;DHT22;5277;48.722;8.736;2023-11-19T04:49:58;10.80;99.90
10459;DHT22;5277;48.722;8.736;2023-11-19T04:52:24;10.70;99.90
10459;DHT22;5277;48.722;8.736;2023-11-19T04:54:50;10.70;99.90
10459;DHT22;5277;48.722;8.736;2023-11-19T04:57:15;10.70;99.90
10459;DHT22;5277;48.722;8.736;2023-11-19T04:59:41;10.70;99.90
10459;DHT22;5277;48.722;8.736;2023-11-19T05:02:08;10.70;99.90
10459;DHT22;5277;48.722;8.736;2023-11-19T05:04:34;10.80;99.90
10459;DHT22;5277;48.722;8.736;2023-11-19T05:06:59;10.70;99.90
10459;DHT22;5277;48.722;8.736;2023-11-19T05:09:25;10.70;99.90
10459;DHT22;5277;48.722;8.736;2023-11-19T05:11:50;10.70;99.90
10459;DHT22;5277;48.722;8.736;2023-11-19T05:14:16;10.70;99.90
10459;DHT22;5277;48.722;8.736;2023-11-19T05:16:42;10.80;99.90
10459;DHT22;5277;48.722;8.736;2023-11-19T05:19:08;10.80;99.90
10459;DHT22;5277;48.722;8.736;2023-11-19T05:21:34;10.80;99.90
10459;DHT22;5277;48.722;8.736;2023-11-19T05:24:02;10.70;99.90
10459;DHT22;5277;48.722;8.736;2023-11-19T05:26:30;10.80;99.90
10459;DHT22;5277;48.722;8.736;2023-11-19T05:28:55;10.80;99.90
10459;DHT22;5277;48.722;8.736;2023-11-19T05:31:21;10.80;99.90
10459;DHT22;5277;48.722;8.736;2023-11-19T05:33:47;10.90;99.90
10459;DHT22;5277;48.722;8.736;2023-11-19T05:36:12;10.90;99.90
10459;DHT22;5277;48.722;8.736;2023-11-19T05:38:38;10.90;99.90
10459;DHT22;5277;48.722;8.736;2023-11-19T05:41:04;10.90;99.90
10459;DHT22;5277;48.722;8.736;2023-11-19T05:43:31;10.90;99.90
10459;DHT22;5277;48.722;8.736;2023-11-19T05:45:56;10.90;99.90
10459;DHT22;5277;48.722;8.736;2023-11-19T05:48:22;11.00;99.90
10459;DHT22;5277;48.722;8.736;2023-11-19T05:50:48;11.10;99.90
10459;DHT22;5277;48.722;8.736;2023-11-19T05:53:15;11.10;99.90
10459;DHT22;5277;48.722;8.736;2023-11-19T05:55:41;11.20;99.90
10459;DHT22;5277;48.722;8.736;2023-11-19T05:58:14;11.20;99.90
10459;DHT22;5277;48.722;8.736;2023-11-19T06:00:40;11.20;99.90
10459;DHT22;5277;48.722;8.736;2023-11-19T06:03:08;11.30;99.90
10459;DHT22;5277;48.722;8.736;2023-11-19T06:05:34;11.30;99.90
10459;DHT22;5277;48.722;8.736;2023-11-19T06:07:59;11.30;99.90
10459;DHT22;5277;48.722;8.736;2023-11-19T06:10:25;11.30;99.90
10459;DHT22;5277;48.722;8.736;2023-11-19T06:12:58;11.30;99.90
10459;DHT22;5277;48.722;8.736;2023-11-19T06:15:28;11.30;99.90
10459;DHT22;5277;48.722;8.736;2023-11-19T06:17:54;11.40;99.90
10459;DHT22;5277;48.722;8.736;2023-11-19T06:20:20;11.40;99.90
10459;DHT22;5277;48.722;8.736;2023-11-19T06:22:46;11.40;99.90
10459;DHT22;5277;48.722;8.736;2023-11-19T06:25:12;11.40;99.90
10459;DHT22;5277;48.722;8.736;2023-11-19T06:27:40;11.40;99.90
10459;DHT22;5277;48.722;8.736;2023-11-19T06:30:07;11.40;99.90
10459;DHT22;5277;48.722;8.736;2023-11-19T06:32:32;11.40;99.90
10459;DHT22;5277;48.722;8.736;2023-11-19T06:34:58;11.40;99.90
10459;DHT22;5277;48.722;8.736;2023-11-19T06:37:23;11.40;99.90
10459;DHT22;5277;48.722;8.736;2023-11-19T06:39:49;11.40;99.90
10459;DHT22;5277;48.722;8.736;2023-11-19T06:42:15;11.50;99.90
10459;DHT22;5277;48.722;8.736;2023-11-19T06:44:40;11.50;99.90
10459;DHT22;5277;48.722;8.736;2023-11-19T06:47:06;11.50;99.90
10459;DHT22;5277;48.722;8.736;2023-11-19T06:49:32;11.50;99.90
10459;DHT22;5277;48.722;8.736;2023-11-19T06:51:58;11.40;99.90
10459;DHT22;5277;48.722;8.736;2023-11-19T06:54:24;11.50;99.90
10459;DHT22;5277;48.722;8.736;2023-11-19T06:56:49;11.40;99.90
10459;DHT22;5277;48.722;8.736;2023-11-19T06:59:15;11.40;99.90
10459;DHT22;5277;48.722;8.736;2023-11-19T07:01:40;11.40;99.90
10459;DHT22;5277;48.722;8.736;2023-11-19T07:04:11;11.40;99.90
10459;DHT22;5277;48.722;8.736;2023-11-19T07:06:38;11.40;99.90
10459;DHT22;5277;48.722;8.736;2023-11-19T07:09:04;11.40;99.90
10459;DHT22;5277;48.722;8.736;2023-11-19T07:11:36;11.40;99.90
10459;DHT22;5277;48.722;8.736;2023-11-19T07:14:02;11.40;99.90
10459;DHT22;5277;48.722;8.736;2023-11-19T07:16:28;11.40;99.90
10459;DHT22;5277;48.722;8.736;2023-11-19T07:18:54;11.50;99.90
10459;DHT22;5277;48.722;8.736;2023-11-19T07:21:19;11.50;99.90
10459;DHT22;5277;48.722;8.736;2023-11-19T07:23:45;11.50;99.90
10459;DHT22;5277;48.722;8.736;2023-11-19T07:26:12;11.50;99.90
10459;DHT22;5277;48.722;8.736;2023-11-19T07:28:37;11.50;99.90
10459;DHT22;5277;48.722;8.736;2023-11-19T07:31:05;11.60;99.90
10459;DHT22;5277;48.722;8.736;2023-11-19T07:33:33;11.60;99.90
10459;DHT22;5277;48.722;8.736;2023-11-19T07:35:59;11.60;99.90
10459;DHT22;5277;48.722;8.736;2023-11-19T07:38:24;11.60;99.90
10459;DHT22;5277;48.722;8.736;2023-11-19T07:40:50;11.70;99.90
10459;DHT22;5277;48.722;8.736;2023-11-19T07:43:16;11.70;99.90
10459;DHT22;5277;48.722;8.736;2023-11-19T07:45:41;11.70;99.90
10459;DHT22;5277;48.722;8.736;2023-11-19T07:48:09;11.70;99.90
10459;DHT22;5277;48.722;8.736;2023-11-19T07:50:35;11.80;99.90
10459;DHT22;5277;48.722;8.736;2023-11-19T07:53:01;11.80;99.90
10459;DHT22;5277;48.722;8.736;2023-11-19T07:55:29;11.80;99.90
10459;DHT22;5277;48.722;8.736;2023-11-19T07:57:55;11.70;99.90
10459;DHT22;5277;48.722;8.736;2023-11-19T08:00:21;11.80;99.90
10459;DHT22;5277;48.722;8.736;2023-11-19T08:02:46;11.80;99.90
10459;DHT22;5277;48.722;8.736;2023-11-19T08:05:12;11.80;99.90
10459;DHT22;5277;48.722;8.736;2023-11-19T08:07:38;11.70;99.90
10459;DHT22;5277;48.722;8.736;2023-11-19T08:10:04;11.80;99.90
10459;DHT22;5277;48.722;8.736;2023-11-19T08:12:31;11.90;99.90
10459;DHT22;5277;48.722;8.736;2023-11-19T08:14:56;11.90;99.90
10459;DHT22;5277;48.722;8.736;2023-11-19T08:17:24;11.90;99.90
10459;DHT22;5277;48.722;8.736;2023-11-19T08:19:50;11.90;99.90
10459;DHT22;5277;48.722;8.736;2023-11-19T08:22:16;11.90;99.90
10459;DHT22;5277;48.722;8.736;2023-11-19T08:24:42;11.80;99.90
10459;DHT22;5277;48.722;8.736;2023-11-19T08:27:08;11.80;99.90
10459;DHT22;5277;48.722;8.736;2023-11-19T08:29:34;11.80;99.90
10459;DHT22;5277;48.722;8.736;2023-11-19T08:32:02;11.90;99.90
10459;DHT22;5277;48.722;8.736;2023-11-19T08:34:29;11.90;99.90
10459;DHT22;5277;48.722;8.736;2023-11-19T08:36:55;11.90;99.90
10459;DHT22;5277;48.722;8.736;2023-11-19T08:39:21;12.00;99.90
10459;DHT22;5277;48.722;8.736;2023-11-19T08:41:47;12.00;99.90
10459;DHT22;5277;48.722;8.736;2023-11-19T08:44:13;12.10;99.90
10459;DHT22;5277;48.722;8.736;2023-11-19T08:46:45;12.10;99.90
10459;DHT22;5277;48.722;8.736;2023-11-19T08:49:11;12.10;99.90
10459;DHT22;5277;48.722;8.736;2023-11-19T08:51:36;12.20;99.90
10459;DHT22;5277;48.722;8.736;2023-11-19T08:54:02;12.20;99.90
10459;DHT22;5277;48.722;8.736;2023-11-19T08:56:27;12.20;99.90
10459;DHT22;5277;48.722;8.736;2023-11-19T08:58:58;12.20;99.90
10459;DHT22;5277;48.722;8.736;2023-11-19T09:01:23;12.20;99.90
10459;DHT22;5277;48.722;8.736;2023-11-19T09:03:50;12.30;99.90
10459;DHT22;5277;48.722;8.736;2023-11-19T09:06:15;12.20;99.90
10459;DHT22;5277;48.722;8.736;2023-11-19T09:08:42;12.30;99.90
10459;DHT22;5277;48.722;8.736;2023-11-19T09:11:08;12.20;99.90
10459;DHT22;5277;48.722;8.736;2023-11-19T09:13:37;12.30;99.90
10459;DHT22;5277;48.722;8.736;2023-11-19T09:16:03;12.30;99.90
10459;DHT22;5277;48.722;8.736;2023-11-19T09:18:31;12.30;99.90
10459;DHT22;5277;48.722;8.736;2023-11-19T09:20:57;12.40;99.90
10459;DHT22;5277;48.722;8.736;2023-11-19T09:23:23;12.50;99.90
10459;DHT22;5277;48.722;8.736;2023-11-19T09:25:54;12.60;99.90
10459;DHT22;5277;48.722;8.736;2023-11-19T09:28:20;12.60;99.90
10459;DHT22;5277;48.722;8.736;2023-11-19T09:30:45;12.70;99.90
10459;DHT22;5277;48.722;8.736;2023-11-19T09:33:11;12.80;99.90
10459;DHT22;5277;48.722;8.736;2023-11-19T09:35:36;13.00;99.90
10459;DHT22;5277;48.722;8.736;2023-11-19T09:38:02;13.00;99.90
10459;DHT22;5277;48.722;8.736;2023-11-19T09:40:28;13.20;99.90
10459;DHT22;5277;48.722;8.736;2023-11-19T09:42:54;13.20;99.90
10459;DHT22;5277;48.722;8.736;2023-11-19T09:45:21;13.30;99.90
10459;DHT22;5277;48.722;8.736;2023-11-19T09:47:47;13.30;99.90
10459;DHT22;5277;48.722;8.736;2023-11-19T09:50:16;13.40;99.90
10459;DHT22;5277;48.722;8.736;2023-11-19T09:52:44;13.50;99.90
10459;DHT22;5277;48.722;8.736;2023-11-19T09:55:10;13.60;99.90
10459;DHT22;5277;48.722;8.736;2023-11-19T09:57:38;13.70;99.90
10459;DHT22;5277;48.722;8.736;2023-11-19T10:00:06;13.70;99.90
10459;DHT22;5277;48.722;8.736;2023-11-19T10:02:33;13.70;99.90
10459;DHT22;5277;48.722;8.736;2023-11-19T10:05:04;13.70;99.90
10459;DHT22;5277;48.722;8.736;2023-11-19T10:07:31;13.70;99.90
10459;DHT22;5277;48.722;8.736;2023-11-19T10:09:59;13.70;99.90
10459;DHT22;5277;48.722;8.736;2023-11-19T10:12:27;13.80;99.90
10459;DHT22;5277;48.722;8.736;2023-11-19T10:14:55;13.90;99.90
10459;DHT22;5277;48.722;8.736;2023-11-19T10:17:21;14.00;99.90
10459;DHT22;5277;48.722;8.736;2023-11-19T10:19:47;14.00;99.90
10459;DHT22;5277;48.722;8.736;2023-11-19T10:22:12;14.00;99.90
10459;DHT22;5277;48.722;8.736;2023-11-19T10:24:41;14.10;99.90
10459;DHT22;5277;48.722;8.736;2023-11-19T10:27:07;14.10;99.90
10459;DHT22;5277;48.722;8.736;2023-11-19T10:29:36;14.00;99.90
10459;DHT22;5277;48.722;8.736;2023-11-19T10:32:03;14.00;99.90
10459;DHT22;5277;48.722;8.736;2023-11-19T10:34:28;14.10;99.90
10459;DHT22;5277;48.722;8.736;2023-11-19T10:36:55;14.10;99.90
10459;DHT22;5277;48.722;8.736;2023-11-19T10:39:21;14.20;99.90
10459;DHT22;5277;48.722;8.736;2023-11-19T10:41:47;14.20;99.90
10459;DHT22;5277;48.722;8.736;2023-11-19T10:44:12;14.30;99.90
10459;DHT22;5277;48.722;8.736;2023-11-19T10:46:56;14.30;99.90
10459;DHT22;5277;48.722;8.736;2023-11-19T10:49:21;14.30;99.90
10459;DHT22;5277;48.722;8.736;2023-11-19T10:51:47;14.30;99.90
10459;DHT22;5277;48.722;8.736;2023-11-19T10:54:15;14.30;99.90
10459;DHT22;5277;48.722;8.736;2023-11-19T10:56:44;14.40;99.90
10459;DHT22;5277;48.722;8.736;2023-11-19T10:59:13;14.40;99.90
10459;DHT22;5277;48.722;8.736;2023-11-19T11:01:43;14.50;99.90
10459;DHT22;5277;48.722;8.736;2023-11-19T11:04:14;14.50;99.90
10459;DHT22;5277;48.722;8.736;2023-11-19T11:06:41;14.50;99.90
10459;DHT22;5277;48.722;8.736;2023-11-19T11:09:07;14.60;99.90
10459;DHT22;5277;48.722;8.736;2023-11-19T11:11:38;14.50;99.90
10459;DHT22;5277;48.722;8.736;2023-11-19T11:14:04;14.60;99.90
10459;DHT22;5277;48.722;8.736;2023-11-19T11:16:31;14.60;99.90
10459;DHT22;5277;48.722;8.736;2023-11-19T11:18:57;14.60;99.90
10459;DHT22;5277;48.722;8.736;2023-11-19T11:21:26;14.60;99.90
10459;DHT22;5277;48.722;8.736;2023-11-19T11:27:16;14.60;99.90
10459;DHT22;5277;48.722;8.736;2023-11-19T11:30:20;14.70;99.90
10459;DHT22;5277;48.722;8.736;2023-11-19T11:38:28;14.70;99.90
10459;DHT22;5277;48.722;8.736;2023-11-19T11:41:14;14.70;99.90
10459;DHT22;5277;48.722;8.736;2023-11-19T11:43:50;14.80;99.90
10459;DHT22;5277;48.722;8.736;2023-11-19T11:49:07;14.80;99.90
10459;DHT22;5277;48.722;8.736;2023-11-19T11:57:08;14.80;99.90
10459;DHT22;5277;48.722;8.736;2023-11-19T11:59:47;14.80;99.90
10459;DHT22;5277;48.722;8.736;2023-11-19T12:02:19;14.90;99.90
10459;DHT22;5277;48.722;8.736;2023-11-19T12:04:50;14.80;99.90
10459;DHT22;5277;48.722;8.736;2023-11-19T12:07:26;14.80;99.90
10459;DHT22;5277;48.722;8.736;2023-11-19T12:09:53;14.80;99.90
10459;DHT22;5277;48.722;8.736;2023-11-19T12:12:32;14.70;99.90
10459;DHT22;5277;48.722;8.736;2023-11-19T12:20:02;14.70;99.90
10459;DHT22;5277;48.722;8.736;2023-11-19T12:22:28;14.60;99.90
10459;DHT22;5277;48.722;8.736;2023-11-19T12:24:54;14.60;99.90
10459;DHT22;5277;48.722;8.736;2023-11-19T12:27:20;14.60;99.90
10459;DHT22;5277;48.722;8.736;2023-11-19T12:29:49;14.50;99.90
10459;DHT22;5277;48.722;8.736;2023-11-19T12:32:15;14.50;99.90
10459;DHT22;5277;48.722;8.736;2023-11-19T12:34:41;14.50;99.90
10459;DHT22;5277;48.722;8.736;2023-11-19T12:37:07;14.50;99.90
10459;DHT22;5277;48.722;8.736;2023-11-19T12:39:35;14.40;99.90
10459;DHT22;5277;48.722;8.736;2023-11-19T12:42:01;14.30;99.90
10459;DHT22;5277;48.722;8.736;2023-11-19T12:44:26;14.30;99.90
10459;DHT22;5277;48.722;8.736;2023-11-19T12:47:03;14.30;99.90
10459;DHT22;5277;48.722;8.736;2023-11-19T12:49:29;14.30;99.90
10459;DHT22;5277;48.722;8.736;2023-11-19T12:51:55;14.30;99.90
10459;DHT22;5277;48.722;8.736;2023-11-19T12:54:31;14.20;99.90
10459;DHT22;5277;48.722;8.736;2023-11-19T12:56:56;14.10;99.90
10459;DHT22;5277;48.722;8.736;2023-11-19T12:59:22;14.10;99.90
10459;DHT22;5277;48.722;8.736;2023-11-19T13:01:57;14.00;99.90
10459;DHT22;5277;48.722;8.736;2023-11-19T13:04:30;13.90;99.90
10459;DHT22;5277;48.722;8.736;2023-11-19T13:06:57;13.90;99.90
10459;DHT22;5277;48.722;8.736;2023-11-19T13:11:53;13.90;99.90
10459;DHT22;5277;48.722;8.736;2023-11-19T13:14:19;13.80;99.90
10459;DHT22;5277;48.722;8.736;2023-11-19T13:16:45;13.70;99.90
10459;DHT22;5277;48.722;8.736;2023-11-19T13:19:12;13.80;99.90
10459;DHT22;5277;48.722;8.736;2023-11-19T13:21:38;13.80;99.90
10459;DHT22;5277;48.722;8.736;2023-11-19T13:24:06;13.70;99.90
10459;DHT22;5277;48.722;8.736;2023-11-19T13:26:31;13.70;99.90
10459;DHT22;5277;48.722;8.736;2023-11-19T13:28:57;13.70;99.90
10459;DHT22;5277;48.722;8.736;2023-11-19T13:31:23;13.60;99.90
10459;DHT22;5277;48.722;8.736;2023-11-19T13:33:48;13.60;99.90
10459;DHT22;5277;48.722;8.736;2023-11-19T13:36:14;13.60;99.90
10459;DHT22;5277;48.722;8.736;2023-11-19T13:38:40;13.60;99.90
10459;DHT22;5277;48.722;8.736;2023-11-19T13:41:07;13.60;99.90
10459;DHT22;5277;48.722;8.736;2023-11-19T13:43:35;13.70;99.90
10459;DHT22;5277;48.722;8.736;2023-11-19T13:46:01;13.70;99.90
10459;DHT22;5277;48.722;8.736;2023-11-19T13:48:26;13.60;99.90
10459;DHT22;5277;48.722;8.736;2023-11-19T13:50:54;13.50;99.90
10459;DHT22;5277;48.722;8.736;2023-11-19T13:53:20;13.40;99.90
10459;DHT22;5277;48.722;8.736;2023-11-19T13:55:46;13.40;99.90
10459;DHT22;5277;48.722;8.736;2023-11-19T13:58:13;13.40;99.90
10459;DHT22;5277;48.722;8.736;2023-11-19T14:00:38;13.30;99.90
10459;DHT22;5277;48.722;8.736;2023-11-19T14:03:04;13.20;99.90
10459;DHT22;5277;48.722;8.736;2023-11-19T14:05:30;13.20;99.90
10459;DHT22;5277;48.722;8.736;2023-11-19T14:07:56;13.00;99.90
10459;DHT22;5277;48.722;8.736;2023-11-19T14:10:23;13.00;99.90
10459;DHT22;5277;48.722;8.736;2023-11-19T14:12:48;13.00;99.90
10459;DHT22;5277;48.722;8.736;2023-11-19T14:15:15;13.00;99.90
10459;DHT22;5277;48.722;8.736;2023-11-19T14:17:44;12.90;99.90
10459;DHT22;5277;48.722;8.736;2023-11-19T14:20:10;12.90;99.90
10459;DHT22;5277;48.722;8.736;2023-11-19T14:22:43;12.90;99.90
10459;DHT22;5277;48.722;8.736;2023-11-19T14:25:10;12.90;99.90
10459;DHT22;5277;48.722;8.736;2023-11-19T14:27:40;12.80;99.90
10459;DHT22;5277;48.722;8.736;2023-11-19T14:30:10;12.70;99.90
10459;DHT22;5277;48.722;8.736;2023-11-19T14:32:37;12.70;99.90
10459;DHT22;5277;48.722;8.736;2023-11-19T14:35:03;12.60;99.90
10459;DHT22;5277;48.722;8.736;2023-11-19T14:37:29;12.60;99.90
10459;DHT22;5277;48.722;8.736;2023-11-19T14:39:56;12.50;99.90
10459;DHT22;5277;48.722;8.736;2023-11-19T14:42:23;12.60;99.90
10459;DHT22;5277;48.722;8.736;2023-11-19T14:44:48;12.50;99.90
10459;DHT22;5277;48.722;8.736;2023-11-19T14:47:14;12.40;99.90
10459;DHT22;5277;48.722;8.736;2023-11-19T14:49:40;12.20;99.90
10459;DHT22;5277;48.722;8.736;2023-11-19T14:52:05;12.20;99.90
10459;DHT22;5277;48.722;8.736;2023-11-19T14:54:31;12.20;99.90
10459;DHT22;5277;48.722;8.736;2023-11-19T14:56:57;12.20;99.90
10459;DHT22;5277;48.722;8.736;2023-11-19T14:59:24;12.00;99.90
10459;DHT22;5277;48.722;8.736;2023-11-19T15:01:50;12.10;99.90
10459;DHT22;5277;48.722;8.736;2023-11-19T15:04:15;12.00;99.90
10459;DHT22;5277;48.722;8.736;2023-11-19T15:06:41;12.00;99.90
10459;DHT22;5277;48.722;8.736;2023-11-19T15:09:07;12.00;99.90
10459;DHT22;5277;48.722;8.736;2023-11-19T15:11:33;11.90;99.90
10459;DHT22;5277;48.722;8.736;2023-11-19T15:13:59;11.80;99.90
10459;DHT22;5277;48.722;8.736;2023-11-19T15:16:25;11.80;99.90
10459;DHT22;5277;48.722;8.736;2023-11-19T15:18:57;11.70;99.90
10459;DHT22;5277;48.722;8.736;2023-11-19T15:21:28;11.60;99.90
10459;DHT22;5277;48.722;8.736;2023-11-19T15:23:54;11.60;99.90
10459;DHT22;5277;48.722;8.736;2023-11-19T15:26:20;11.50;99.90
10459;DHT22;5277;48.722;8.736;2023-11-19T15:28:46;11.50;99.90
10459;DHT22;5277;48.722;8.736;2023-11-19T15:31:12;11.50;99.90
10459;DHT22;5277;48.722;8.736;2023-11-19T15:33:38;11.40;99.90
10459;DHT22;5277;48.722;8.736;2023-11-19T15:36:05;11.30;99.90
10459;DHT22;5277;48.722;8.736;2023-11-19T15:38:36;11.40;99.90
10459;DHT22;5277;48.722;8.736;2023-11-19T15:41:01;11.30;99.90
10459;DHT22;5277;48.722;8.736;2023-11-19T15:43:30;11.30;99.90
10459;DHT22;5277;48.722;8.736;2023-11-19T15:45:56;11.30;99.90
10459;DHT22;5277;48.722;8.736;2023-11-19T15:48:22;11.30;99.90
10459;DHT22;5277;48.722;8.736;2023-11-19T15:50:47;11.20;99.90
10459;DHT22;5277;48.722;8.736;2023-11-19T15:53:13;11.20;99.90
10459;DHT22;5277;48.722;8.736;2023-11-19T15:55:38;11.10;99.90
10459;DHT22;5277;48.722;8.736;2023-11-19T15:58:04;11.10;99.90
10459;DHT22;5277;48.722;8.736;2023-11-19T16:00:31;11.10;99.90
10459;DHT22;5277;48.722;8.736;2023-11-19T16:02:57;11.00;99.90
10459;DHT22;5277;48.722;8.736;2023-11-19T16:05:23;10.80;99.90
10459;DHT22;5277;48.722;8.736;2023-11-19T16:07:51;10.80;99.90
10459;DHT22;5277;48.722;8.736;2023-11-19T16:10:16;10.80;99.90
10459;DHT22;5277;48.722;8.736;2023-11-19T16:12:45;10.80;99.90
10459;DHT22;5277;48.722;8.736;2023-11-19T16:15:11;10.70;99.90